Time;durP1;ratioP1;P1;durP2;ratioP2;P2;SDS_P1;SDS_P2;PMS_P1;PMS_P2;Temp;Humidity;BMP_temperature;BMP_pressure;BME280_temperature;BME280_humidity;BME280_pressure;Samples;Min_cycle;Max_cycle;Signal;HPM_P1;HPM_P2
2022/11/15 00:03:27;;;;;;;;;;;8.60;99.90;;;;;;12608147;28;19929;-38
2022/11/15 00:09:29;;;;;;;;;;;8.80;99.90;;;;;;12607581;28;19977;-38
2022/11/15 00:15:31;;;;;;;;;;;9.00;99.90;;;;;;12598410;28;19932;-38
2022/11/15 00:21:32;;;;;;;;;;;9.20;99.90;;;;;;12607117;28;19928;-38
2022/11/15 00:27:34;;;;;;;;;;;9.40;99.90;;;;;;12599006;28;19925;-37
2022/11/15 00:33:36;;;;;;;;;;;9.40;99.90;;;;;;12612903;28;20399;-38
2022/11/15 00:39:38;;;;;;;;;;;9.50;99.90;;;;;;12608078;28;19932;-38
2022/11/15 00:45:40;;;;;;;;;;;9.50;99.90;;;;;;12620759;28;19928;-38
2022/11/15 00:51:41;;;;;;;;;;;9.60;99.90;;;;;;12598311;28;19925;-37
2022/11/15 00:57:43;;;;;;;;;;;9.60;99.90;;;;;;12599602;28;19925;-37
2022/11/15 01:03:45;;;;;;;;;;;9.70;99.90;;;;;;12619302;28;20455;-38
2022/11/15 01:09:47;;;;;;;;;;;9.80;99.90;;;;;;12617672;28;19935;-38
2022/11/15 01:15:48;;;;;;;;;;;9.90;99.90;;;;;;12614786;28;19932;-38
2022/11/15 01:21:50;;;;;;;;;;;10.00;99.90;;;;;;12611397;28;19928;-38
2022/11/15 01:27:52;;;;;;;;;;;10.10;99.90;;;;;;12575639;28;20030;-38
2022/11/15 01:33:53;;;;;;;;;;;10.20;99.90;;;;;;12606271;28;19931;-37
2022/11/15 01:39:55;;;;;;;;;;;10.30;99.90;;;;;;12619668;28;19924;-37
2022/11/15 01:46:14;;;;;;;;;;;10.40;99.90;;;;;;12616268;28;19924;-38
2022/11/15 01:52:18;;;;;;;;;;;10.50;99.90;;;;;;12602735;28;20391;-37
2022/11/15 01:58:20;;;;;;;;;;;10.60;99.90;;;;;;12603318;28;19947;-38
2022/11/15 02:04:25;;;;;;;;;;;10.60;99.90;;;;;;12626758;28;20529;-38
2022/11/15 02:10:27;;;;;;;;;;;10.70;99.90;;;;;;12599716;28;19928;-37
2022/11/15 02:16:44;;;;;;;;;;;10.60;99.90;;;;;;12605805;28;19924;-37
2022/11/15 02:22:57;;;;;;;;;;;10.60;99.90;;;;;;12611101;28;19928;-38
2022/11/15 02:29:02;;;;;;;;;;;10.60;99.90;;;;;;12606384;28;19929;-37
2022/11/15 02:35:13;;;;;;;;;;;10.50;99.90;;;;;;12617274;28;19947;-38
2022/11/15 02:41:19;;;;;;;;;;;10.60;99.90;;;;;;12571672;28;19948;-39
2022/11/15 02:47:22;;;;;;;;;;;10.70;99.90;;;;;;12568618;28;19968;-37
2022/11/15 02:53:24;;;;;;;;;;;10.60;99.90;;;;;;12564687;28;19925;-37
2022/11/15 02:59:37;;;;;;;;;;;10.60;99.90;;;;;;12570754;28;19924;-37
2022/11/15 03:05:41;;;;;;;;;;;10.60;99.90;;;;;;12580685;28;20341;-37
2022/11/15 03:11:55;;;;;;;;;;;10.60;99.90;;;;;;12568292;28;19936;-38
2022/11/15 03:18:10;;;;;;;;;;;10.60;99.90;;;;;;12585685;28;20384;-38
2022/11/15 03:24:12;;;;;;;;;;;10.80;99.90;;;;;;12576128;28;19943;-37
2022/11/15 03:30:14;;;;;;;;;;;10.70;99.90;;;;;;12568849;28;20018;-38
2022/11/15 03:36:16;;;;;;;;;;;10.70;99.90;;;;;;12560493;28;19977;-37
2022/11/15 03:42:23;;;;;;;;;;;10.70;99.90;;;;;;12551017;28;19933;-38
2022/11/15 03:48:27;;;;;;;;;;;10.70;99.90;;;;;;12562228;28;20396;-38
2022/11/15 03:54:29;;;;;;;;;;;10.70;99.90;;;;;;12569299;28;19925;-38
2022/11/15 04:00:30;;;;;;;;;;;10.70;99.90;;;;;;12567169;28;19947;-37
2022/11/15 04:06:32;;;;;;;;;;;10.70;99.90;;;;;;12573307;28;19928;-37
2022/11/15 04:12:36;;;;;;;;;;;10.80;99.90;;;;;;12564628;28;19924;-38
2022/11/15 04:18:38;;;;;;;;;;;10.90;99.90;;;;;;12572713;28;20013;-37
2022/11/15 04:24:39;;;;;;;;;;;11.00;99.90;;;;;;12570108;28;19931;-38
2022/11/15 04:30:41;;;;;;;;;;;11.00;99.90;;;;;;12567796;28;19936;-37
2022/11/15 04:43:03;;;;;;;;;;;10.90;99.90;;;;;;12594004;28;20288;-37
2022/11/15 04:49:05;;;;;;;;;;;10.80;99.90;;;;;;12585347;28;19924;-37
2022/11/15 04:55:07;;;;;;;;;;;10.60;99.90;;;;;;12602654;28;19935;-39
2022/11/15 05:01:16;;;;;;;;;;;10.60;99.90;;;;;;12614817;28;19970;-38
2022/11/15 05:07:18;;;;;;;;;;;10.70;99.90;;;;;;12607152;28;19928;-37
2022/11/15 05:13:20;;;;;;;;;;;10.70;99.90;;;;;;12616284;28;19931;-37
2022/11/15 05:19:21;;;;;;;;;;;10.70;99.90;;;;;;12589553;28;19924;-38
2022/11/15 05:25:23;;;;;;;;;;;10.80;99.90;;;;;;12618705;28;19935;-37
2022/11/15 05:31:25;;;;;;;;;;;10.80;99.90;;;;;;12608643;28;19977;-38
2022/11/15 05:37:28;;;;;;;;;;;10.80;99.90;;;;;;12596719;28;19929;-37
2022/11/15 05:43:31;;;;;;;;;;;10.80;99.90;;;;;;12602448;28;20291;-38
2022/11/15 05:49:34;;;;;;;;;;;10.80;99.90;;;;;;12611661;28;19932;-38
2022/11/15 05:55:37;;;;;;;;;;;10.80;99.90;;;;;;12595706;28;20311;-37
2022/11/15 06:01:39;;;;;;;;;;;10.80;99.90;;;;;;12608027;28;20342;-37
2022/11/15 06:07:41;;;;;;;;;;;10.70;99.90;;;;;;12616106;28;19928;-38
2022/11/15 06:13:43;;;;;;;;;;;10.70;99.90;;;;;;12633213;28;19985;-38
2022/11/15 06:19:44;;;;;;;;;;;10.80;99.90;;;;;;12612578;28;19924;-38
2022/11/15 06:25:46;;;;;;;;;;;10.80;99.90;;;;;;12618081;28;20705;-37
2022/11/15 06:31:48;;;;;;;;;;;10.90;99.90;;;;;;12621046;28;19976;-37
2022/11/15 06:37:49;;;;;;;;;;;10.90;99.90;;;;;;12626915;28;20345;-37
2022/11/15 06:43:51;;;;;;;;;;;11.00;99.90;;;;;;12616428;28;19962;-37
2022/11/15 06:49:53;;;;;;;;;;;11.10;99.90;;;;;;12609325;28;20329;-37
2022/11/15 06:55:58;;;;;;;;;;;11.10;99.90;;;;;;12611572;28;19943;-38
2022/11/15 07:02:00;;;;;;;;;;;11.20;99.90;;;;;;12595915;28;19928;-37
2022/11/15 07:08:02;;;;;;;;;;;11.30;99.90;;;;;;12617795;28;19924;-37
2022/11/15 07:14:04;;;;;;;;;;;11.30;99.90;;;;;;12626949;28;19976;-37
2022/11/15 07:20:06;;;;;;;;;;;11.40;99.90;;;;;;12592439;28;20387;-37
2022/11/15 07:26:08;;;;;;;;;;;11.40;99.90;;;;;;12576479;28;19925;-38
2022/11/15 07:32:09;;;;;;;;;;;11.40;99.90;;;;;;12606196;28;20307;-37
2022/11/15 07:38:11;;;;;;;;;;;11.50;99.90;;;;;;12625411;28;20299;-37
2022/11/15 07:44:13;;;;;;;;;;;11.50;99.90;;;;;;12618339;28;19960;-37
2022/11/15 07:50:15;;;;;;;;;;;11.80;99.90;;;;;;12611276;28;19969;-37
2022/11/15 07:56:17;;;;;;;;;;;11.90;99.90;;;;;;12606563;28;19932;-37
2022/11/15 08:02:19;;;;;;;;;;;12.00;99.90;;;;;;12612838;28;19932;-37
2022/11/15 08:08:21;;;;;;;;;;;12.10;99.90;;;;;;12605215;28;19931;-37
2022/11/15 08:14:22;;;;;;;;;;;12.20;99.90;;;;;;12622758;28;19931;-37
2022/11/15 08:20:25;;;;;;;;;;;12.30;99.90;;;;;;12611463;28;19930;-37
2022/11/15 08:26:28;;;;;;;;;;;12.30;99.90;;;;;;12604084;28;19945;-37
2022/11/15 08:32:31;;;;;;;;;;;12.30;99.90;;;;;;12600652;28;19966;-37
2022/11/15 08:38:33;;;;;;;;;;;12.30;99.90;;;;;;12618652;28;19935;-37
2022/11/15 08:44:35;;;;;;;;;;;12.40;99.90;;;;;;12592665;28;19928;-38
2022/11/15 08:50:37;;;;;;;;;;;12.30;99.90;;;;;;12595587;28;20442;-37
2022/11/15 08:56:39;;;;;;;;;;;12.30;99.90;;;;;;12589801;28;20334;-37
2022/11/15 09:02:41;;;;;;;;;;;12.30;99.90;;;;;;12587767;28;19924;-38
2022/11/15 09:08:42;;;;;;;;;;;12.40;99.90;;;;;;12612688;28;20574;-37
2022/11/15 09:14:58;;;;;;;;;;;12.60;99.90;;;;;;12618836;28;19982;-38
2022/11/15 09:21:00;;;;;;;;;;;12.90;99.90;;;;;;12621771;28;19992;-37
2022/11/15 09:27:01;;;;;;;;;;;12.90;99.90;;;;;;12612086;28;19925;-38
2022/11/15 09:33:07;;;;;;;;;;;13.00;99.90;;;;;;12600459;28;19935;-38
2022/11/15 09:39:09;;;;;;;;;;;13.10;99.90;;;;;;12612179;28;19924;-37
2022/11/15 09:45:11;;;;;;;;;;;13.20;99.90;;;;;;12607075;28;20006;-38
2022/11/15 09:51:16;;;;;;;;;;;13.40;99.90;;;;;;12606055;28;19924;-38
2022/11/15 09:57:21;;;;;;;;;;;13.50;99.90;;;;;;12596066;28;19931;-38
2022/11/15 10:03:28;;;;;;;;;;;13.70;99.90;;;;;;12599891;28;19975;-38
2022/11/15 10:09:35;;;;;;;;;;;13.90;99.90;;;;;;12630094;28;19925;-38
2022/11/15 10:15:37;;;;;;;;;;;13.90;99.90;;;;;;12619960;28;19931;-38
2022/11/15 10:21:51;;;;;;;;;;;13.90;99.90;;;;;;12613284;28;19935;-38
2022/11/15 10:27:54;;;;;;;;;;;14.10;99.90;;;;;;12602701;28;19928;-38
2022/11/15 10:34:10;;;;;;;;;;;14.10;99.90;;;;;;12613153;28;19928;-38
2022/11/15 10:40:20;;;;;;;;;;;14.10;99.90;;;;;;12596298;28;19924;-38
2022/11/15 10:46:23;;;;;;;;;;;14.10;99.90;;;;;;12612259;28;19974;-38
2022/11/15 10:52:45;;;;;;;;;;;14.30;99.90;;;;;;12613786;28;20435;-37
2022/11/15 10:58:54;;;;;;;;;;;14.30;99.90;;;;;;12605080;28;19928;-38
2022/11/15 11:04:56;;;;;;;;;;;14.50;99.90;;;;;;12622323;28;20620;-37
2022/11/15 11:10:59;;;;;;;;;;;14.70;99.90;;;;;;12616523;28;19932;-38
2022/11/15 11:17:07;;;;;;;;;;;14.80;99.90;;;;;;12628633;28;19928;-38
2022/11/15 11:23:14;;;;;;;;;;;15.20;99.90;;;;;;12615794;28;19924;-38
2022/11/15 11:29:18;;;;;;;;;;;15.40;99.90;;;;;;12606512;28;19929;-38
2022/11/15 11:35:27;;;;;;;;;;;15.50;99.90;;;;;;12610022;28;20291;-38
2022/11/15 11:41:49;;;;;;;;;;;15.70;99.90;;;;;;12603833;28;19931;-37
2022/11/15 11:47:58;;;;;;;;;;;15.30;99.90;;;;;;12617057;28;19925;-37
2022/11/15 11:54:20;;;;;;;;;;;15.50;99.90;;;;;;12607219;28;19924;-37
2022/11/15 12:00:23;;;;;;;;;;;15.30;99.90;;;;;;12601690;28;20022;-37
2022/11/15 12:06:24;;;;;;;;;;;15.30;99.90;;;;;;12615476;28;19925;-37
2022/11/15 12:12:29;;;;;;;;;;;14.90;99.90;;;;;;12607962;28;19931;-37
2022/11/15 12:18:31;;;;;;;;;;;15.20;99.90;;;;;;12615887;28;20253;-37
2022/11/15 12:24:42;;;;;;;;;;;15.20;99.90;;;;;;12611635;28;19935;-37
2022/11/15 12:30:50;;;;;;;;;;;15.40;99.90;;;;;;12601926;28;19925;-38
2022/11/15 12:36:52;;;;;;;;;;;15.50;99.90;;;;;;12595420;28;19966;-38
2022/11/15 12:43:04;;;;;;;;;;;15.20;99.90;;;;;;12607146;28;20023;-38
2022/11/15 12:49:21;;;;;;;;;;;15.20;99.90;;;;;;12594864;28;19973;-37
2022/11/15 12:55:30;;;;;;;;;;;15.30;99.90;;;;;;12613400;28;19956;-37
2022/11/15 13:07:34;;;;;;;;;;;15.10;99.90;;;;;;12615039;28;19990;-37
2022/11/15 13:13:43;;;;;;;;;;;14.60;99.90;;;;;;12599285;28;19928;-38
2022/11/15 13:19:46;;;;;;;;;;;14.40;99.90;;;;;;12608272;28;20345;-38
2022/11/15 13:25:53;;;;;;;;;;;14.50;99.90;;;;;;12599520;28;19925;-38
2022/11/15 13:31:55;;;;;;;;;;;14.40;99.90;;;;;;12608853;28;19966;-38
2022/11/15 13:38:02;;;;;;;;;;;14.00;99.90;;;;;;12579156;28;19924;-38
2022/11/15 13:44:18;;;;;;;;;;;13.90;99.90;;;;;;12612439;28;20378;-38
2022/11/15 13:50:22;;;;;;;;;;;14.00;99.90;;;;;;12598115;28;20329;-38
2022/11/15 13:56:25;;;;;;;;;;;14.00;99.90;;;;;;12595975;28;19931;-37
2022/11/15 14:02:29;;;;;;;;;;;14.00;99.90;;;;;;12588019;28;19931;-37
2022/11/15 14:08:31;;;;;;;;;;;14.00;99.90;;;;;;12615253;28;20561;-38
2022/11/15 14:14:44;;;;;;;;;;;14.10;99.90;;;;;;12612166;28;20389;-38
2022/11/15 14:20:45;;;;;;;;;;;14.20;99.90;;;;;;12612971;28;19928;-38
2022/11/15 14:26:48;;;;;;;;;;;14.10;99.90;;;;;;12607985;28;19931;-38
2022/11/15 14:32:50;;;;;;;;;;;14.10;99.90;;;;;;12628647;28;21489;-38
2022/11/15 14:38:51;;;;;;;;;;;14.10;99.90;;;;;;12626157;28;19925;-38
2022/11/15 14:44:53;;;;;;;;;;;13.90;99.90;;;;;;12612496;28;20369;-38
2022/11/15 14:50:56;;;;;;;;;;;13.80;99.90;;;;;;12616456;28;19931;-37
2022/11/15 14:56:57;;;;;;;;;;;13.60;99.90;;;;;;12615472;28;20372;-39
2022/11/15 15:03:00;;;;;;;;;;;13.40;99.90;;;;;;12610776;28;19931;-40
2022/11/15 15:09:02;;;;;;;;;;;13.30;99.90;;;;;;12623139;28;19924;-39
2022/11/15 15:15:04;;;;;;;;;;;13.20;99.90;;;;;;12620084;28;19924;-40
2022/11/15 15:21:19;;;;;;;;;;;13.10;99.90;;;;;;12596143;28;19924;-39
2022/11/15 15:27:21;;;;;;;;;;;13.10;99.90;;;;;;12610018;28;19924;-40
2022/11/15 15:33:23;;;;;;;;;;;13.20;99.90;;;;;;12631815;28;20351;-40
2022/11/15 15:39:25;;;;;;;;;;;13.20;99.90;;;;;;12619490;28;20022;-39
2022/11/15 15:45:29;;;;;;;;;;;13.10;99.90;;;;;;12619136;28;19967;-39
2022/11/15 15:51:31;;;;;;;;;;;13.00;99.90;;;;;;12626888;28;20050;-40
2022/11/15 15:57:32;;;;;;;;;;;13.00;99.90;;;;;;12611804;28;20288;-39
2022/11/15 16:03:34;;;;;;;;;;;13.00;99.90;;;;;;12611191;28;19924;-39
2022/11/15 16:15:56;;;;;;;;;;;13.00;99.90;;;;;;12618711;28;19936;-39
2022/11/15 16:21:58;;;;;;;;;;;13.10;99.90;;;;;;12616717;28;19928;-39
2022/11/15 16:27:59;;;;;;;;;;;13.10;99.90;;;;;;12616127;28;19924;-39
2022/11/15 16:34:01;;;;;;;;;;;13.10;99.90;;;;;;12605378;28;19924;-39
2022/11/15 16:40:03;;;;;;;;;;;13.10;99.90;;;;;;12621698;28;20050;-39
2022/11/15 16:46:24;;;;;;;;;;;13.10;99.90;;;;;;12607068;28;19936;-39
2022/11/15 16:52:25;;;;;;;;;;;13.10;99.90;;;;;;12593742;28;19935;-40
2022/11/15 16:58:27;;;;;;;;;;;13.10;99.90;;;;;;12599611;28;19924;-39
2022/11/15 17:04:32;;;;;;;;;;;13.10;99.90;;;;;;12610118;28;20406;-39
2022/11/15 17:10:37;;;;;;;;;;;13.20;99.90;;;;;;12622332;28;20044;-39
2022/11/15 17:16:41;;;;;;;;;;;13.10;99.90;;;;;;12600842;28;19924;-40
2022/11/15 17:22:43;;;;;;;;;;;13.10;99.90;;;;;;12599598;28;20516;-41
2022/11/15 17:28:45;;;;;;;;;;;13.10;99.90;;;;;;12612713;28;19940;-39
2022/11/15 17:34:46;;;;;;;;;;;13.00;99.90;;;;;;12624105;28;19928;-39
2022/11/15 17:40:48;;;;;;;;;;;13.00;99.90;;;;;;12610550;28;20591;-39
2022/11/15 17:46:50;;;;;;;;;;;13.00;99.90;;;;;;12619229;28;19928;-39
2022/11/15 17:52:51;;;;;;;;;;;13.00;99.90;;;;;;12608980;28;19924;-39
2022/11/15 17:58:54;;;;;;;;;;;13.00;99.90;;;;;;12599364;28;19935;-39
2022/11/15 18:04:56;;;;;;;;;;;13.00;99.90;;;;;;12627695;28;19932;-39
2022/11/15 18:11:04;;;;;;;;;;;12.90;99.90;;;;;;12618244;28;20384;-39
2022/11/15 18:17:06;;;;;;;;;;;12.80;99.90;;;;;;12625568;28;20431;-39
2022/11/15 18:23:08;;;;;;;;;;;12.70;99.90;;;;;;12622841;28;19932;-39
2022/11/15 18:29:10;;;;;;;;;;;12.70;99.90;;;;;;12615137;28;19924;-39
2022/11/15 18:35:11;;;;;;;;;;;12.60;99.90;;;;;;12645016;28;19931;-40
2022/11/15 18:41:16;;;;;;;;;;;12.70;99.90;;;;;;12629236;28;20040;-39
2022/11/15 18:47:18;;;;;;;;;;;12.70;99.90;;;;;;12619475;28;20268;-39
2022/11/15 18:53:20;;;;;;;;;;;12.70;99.90;;;;;;12625217;28;19924;-39
2022/11/15 18:59:21;;;;;;;;;;;12.70;99.90;;;;;;12618349;28;19928;-39
2022/11/15 19:05:23;;;;;;;;;;;12.80;99.90;;;;;;12630884;28;19924;-38
2022/11/15 19:11:27;;;;;;;;;;;12.90;99.90;;;;;;12596888;28;20039;-39
2022/11/15 19:17:30;;;;;;;;;;;12.80;99.90;;;;;;12623872;28;19931;-39
2022/11/15 19:23:32;;;;;;;;;;;12.80;99.90;;;;;;12624978;28;20284;-39
2022/11/15 19:29:34;;;;;;;;;;;12.80;99.90;;;;;;12621715;28;19924;-39
2022/11/15 19:35:36;;;;;;;;;;;12.80;99.90;;;;;;12617777;28;19928;-39
2022/11/15 19:41:39;;;;;;;;;;;12.80;99.90;;;;;;12616316;28;19924;-39
2022/11/15 19:47:41;;;;;;;;;;;12.80;99.90;;;;;;12607224;28;19947;-39
2022/11/15 19:53:43;;;;;;;;;;;12.80;99.90;;;;;;12589738;28;19928;-38
2022/11/15 19:59:44;;;;;;;;;;;12.70;99.90;;;;;;12593231;28;19928;-39
2022/11/15 20:05:46;;;;;;;;;;;12.70;99.90;;;;;;12615906;28;19939;-38
2022/11/15 20:11:48;;;;;;;;;;;12.70;99.90;;;;;;12615344;28;19928;-39
2022/11/15 20:17:50;;;;;;;;;;;12.80;99.90;;;;;;12621633;28;20296;-39
2022/11/15 20:23:51;;;;;;;;;;;12.80;99.90;;;;;;12618237;28;19931;-39
2022/11/15 20:29:53;;;;;;;;;;;12.90;99.90;;;;;;12607034;28;19959;-39
2022/11/15 20:35:55;;;;;;;;;;;12.90;99.90;;;;;;12606797;28;19928;-40
2022/11/15 20:41:57;;;;;;;;;;;12.80;99.90;;;;;;12600382;28;20014;-39
2022/11/15 20:47:59;;;;;;;;;;;12.80;99.90;;;;;;12585025;28;19932;-40
2022/11/15 20:54:00;;;;;;;;;;;12.90;99.90;;;;;;12614911;28;19928;-39
2022/11/15 21:00:03;;;;;;;;;;;12.80;99.90;;;;;;12607281;28;20001;-39
2022/11/15 21:06:06;;;;;;;;;;;12.80;99.90;;;;;;12624387;28;19933;-39
2022/11/15 21:12:12;;;;;;;;;;;12.80;99.90;;;;;;12615159;28;20306;-39
2022/11/15 21:18:15;;;;;;;;;;;12.80;99.90;;;;;;12613160;28;19931;-39
2022/11/15 21:24:18;;;;;;;;;;;12.70;99.90;;;;;;12613915;28;20403;-39
2022/11/15 21:30:20;;;;;;;;;;;12.70;99.90;;;;;;12624310;28;19924;-39
2022/11/15 21:36:23;;;;;;;;;;;12.70;99.90;;;;;;12597622;28;19931;-39
2022/11/15 21:42:25;;;;;;;;;;;12.70;99.90;;;;;;12611212;28;19971;-39
2022/11/15 21:48:28;;;;;;;;;;;12.70;99.90;;;;;;12609648;28;20049;-39
2022/11/15 21:54:29;;;;;;;;;;;12.70;99.90;;;;;;12605202;28;19925;-39
2022/11/15 22:06:52;;;;;;;;;;;12.80;99.90;;;;;;12622854;28;19928;-39
2022/11/15 22:12:53;;;;;;;;;;;12.80;99.90;;;;;;12612586;28;20018;-39
2022/11/15 22:18:55;;;;;;;;;;;12.90;99.90;;;;;;12618766;28;19931;-39
2022/11/15 22:24:57;;;;;;;;;;;12.90;99.90;;;;;;12619602;28;19932;-39
2022/11/15 22:30:59;;;;;;;;;;;12.90;99.90;;;;;;12609334;28;19931;-40
2022/11/15 22:37:01;;;;;;;;;;;12.90;99.90;;;;;;12597005;28;19974;-39
2022/11/15 22:43:24;;;;;;;;;;;12.80;99.90;;;;;;12617906;28;19947;-39
2022/11/15 22:49:25;;;;;;;;;;;12.90;99.90;;;;;;12603618;28;20414;-39
2022/11/15 22:55:27;;;;;;;;;;;12.80;99.90;;;;;;12612582;28;19935;-39
2022/11/15 23:01:29;;;;;;;;;;;12.80;99.90;;;;;;12595873;28;20009;-39
2022/11/15 23:07:32;;;;;;;;;;;12.70;99.90;;;;;;12628693;28;20295;-38
2022/11/15 23:13:34;;;;;;;;;;;12.70;99.90;;;;;;12623411;28;19925;-39
2022/11/15 23:19:36;;;;;;;;;;;12.80;99.90;;;;;;12601952;28;20036;-39
2022/11/15 23:25:38;;;;;;;;;;;12.80;99.90;;;;;;12612046;28;20369;-39
2022/11/15 23:38:03;;;;;;;;;;;12.80;99.90;;;;;;12580532;28;20300;-39
2022/11/15 23:44:04;;;;;;;;;;;12.80;99.90;;;;;;12601467;28;20308;-39
2022/11/15 23:50:06;;;;;;;;;;;12.70;99.90;;;;;;12624789;28;19931;-39
2022/11/15 23:56:09;;;;;;;;;;;12.60;99.90;;;;;;12551451;28;19925;-39
